Lexington, Virginia
Current Conditions -  °F | °C
As of 6:15 AM on Wednesday 22 Oct 2014 (Local Time) from KHSP Reporting Station
Overcast Overcast  
Wind Chill: 30°   Ceiling: 600
Heat Index: 38°   Visibility: 10mi
Dew Point: 37°   Wind: 15mph
Humidity: 94%   Direction: 310°NW
Pressure: 29.94"   Gusts: 25mph
Location:  37.79°N, 79.44°W
Report Text: KHSP 221015Z AUTO 31013G22KT 10SM OVC006 04/03 A2994 RMK AO2 T00360027
Loading
Personal Weather Stations






























Interactive Weather Map New forecast layout! Learn more

10-Day Weather Forecast

Advertisements
Track Severe Weather on mobile